Time;durP1;ratioP1;P1;durP2;ratioP2;P2;SDS_P1;SDS_P2;PMS_P1;PMS_P2;Temp;Humidity;BMP_temperature;BMP_pressure;BME280_temperature;BME280_humidity;BME280_pressure;Samples;Min_cycle;Max_cycle;Signal;HPM_P1;HPM_P2
2020/12/13 00:00:52;;;;;;;438.48;73.28;;;;;;;10.98;78.05;100436.25;6251255;22;20047;-81
2020/12/13 00:03:18;;;;;;;408.50;69.47;;;;;;;10.94;78.06;100428.53;6251870;22;20050;-81
2020/12/13 00:05:44;;;;;;;456.63;74.57;;;;;;;10.90;77.79;100433.16;6277497;22;20099;-82
2020/12/13 00:08:10;;;;;;;453.70;74.07;;;;;;;10.87;77.94;100438.63;6251884;22;20054;-81
2020/12/13 00:10:36;;;;;;;392.70;68.05;;;;;;;10.86;78.33;100447.50;6263710;22;20381;-82
2020/12/13 00:13:02;;;;;;;422.17;71.72;;;;;;;10.87;78.33;100450.06;6263403;22;20016;-81
2020/12/13 00:15:29;;;;;;;436.67;71.00;;;;;;;10.88;78.44;100451.75;6252053;22;20030;-81
2020/12/13 00:17:55;;;;;;;329.88;64.90;;;;;;;10.90;78.25;100459.63;6251354;22;20015;-82
2020/12/13 00:20:21;;;;;;;441.98;71.18;;;;;;;10.92;78.35;100452.47;6278567;22;20016;-81
2020/12/13 00:22:47;;;;;;;431.27;72.43;;;;;;;10.94;78.18;100458.53;6225684;22;20019;-81
2020/12/13 00:25:14;;;;;;;354.80;64.60;;;;;;;10.95;78.32;100457.63;6251799;22;20023;-81
2020/12/13 00:27:40;;;;;;;378.15;67.88;;;;;;;10.96;78.15;100459.31;6225293;22;20462;-82
2020/12/13 00:30:07;;;;;;;439.02;72.13;;;;;;;10.96;78.07;100459.31;6251282;22;20031;-81
2020/12/13 00:32:33;;;;;;;436.10;70.63;;;;;;;10.94;77.94;100461.19;6250423;22;20016;-81
2020/12/13 00:34:59;;;;;;;425.88;70.40;;;;;;;10.92;78.06;100463.06;6251728;22;20457;-81
2020/12/13 00:37:26;;;;;;;417.92;70.55;;;;;;;10.93;78.35;100475.38;6250799;22;20024;-81
2020/12/13 00:39:53;;;;;;;423.08;71.43;;;;;;;10.93;78.18;100470.09;6250994;22;20042;-81
2020/12/13 00:42:19;;;;;;;401.55;69.18;;;;;;;10.92;78.20;100478.97;6225486;22;20015;-81
2020/12/13 00:44:45;;;;;;;390.58;68.95;;;;;;;10.93;78.20;100485.13;6250442;22;20015;-81
2020/12/13 00:47:12;;;;;;;355.02;66.43;;;;;;;10.93;78.43;100480.69;6251577;22;20019;-81
2020/12/13 00:49:38;;;;;;;421.20;70.97;;;;;;;10.95;78.44;100486.75;6251551;22;20042;-81
2020/12/13 00:52:05;;;;;;;358.77;66.82;;;;;;;10.95;78.24;100484.13;6250423;22;20073;-81
2020/12/13 00:54:32;;;;;;;414.33;70.45;;;;;;;10.94;78.11;100487.69;6251335;22;20392;-82
2020/12/13 00:56:59;;;;;;;432.90;72.47;;;;;;;10.96;77.92;100490.25;6277178;22;20015;-81
2020/12/13 00:59:26;;;;;;;442.85;73.22;;;;;;;10.93;78.24;100480.69;6251087;22;20106;-82
2020/12/13 01:01:52;;;;;;;375.55;68.25;;;;;;;10.91;78.15;100477.25;6250155;22;20016;-82
2020/12/13 01:04:18;;;;;;;437.02;71.97;;;;;;;10.90;78.17;100483.50;6251586;22;20016;-81
2020/12/13 01:06:44;;;;;;;394.85;68.47;;;;;;;10.88;77.98;100478.25;6250341;22;20353;-82
2020/12/13 01:09:10;;;;;;;391.50;69.38;;;;;;;10.83;77.69;100490.03;6250619;22;20103;-82
2020/12/13 01:11:37;;;;;;;371.02;66.53;;;;;;;10.76;77.36;100493.97;6250707;22;20023;-81
2020/12/13 01:14:03;;;;;;;331.48;66.72;;;;;;;10.67;77.81;100493.47;6277260;22;20356;-82
2020/12/13 01:16:29;;;;;;;400.55;67.47;;;;;;;10.64;77.80;100506.91;6249313;22;20457;-81
2020/12/13 01:18:57;;;;;;;439.50;70.95;;;;;;;10.63;78.22;100507.81;6250032;22;20621;-81
2020/12/13 01:21:25;;;;;;;417.67;68.47;;;;;;;10.63;78.13;100509.63;6250428;22;20102;-81
2020/12/13 01:23:51;;;;;;;419.60;68.43;;;;;;;10.63;78.30;100505.16;6277877;22;20695;-81
2020/12/13 01:26:20;;;;;;;429.35;66.82;;;;;;;10.65;78.39;100508.59;6276973;22;20023;-81
2020/12/13 01:28:47;;;;;;;439.33;68.25;;;;;;;10.66;78.59;100510.31;6225467;22;20051;-81
2020/12/13 01:31:18;;;;;;;392.63;68.25;;;;;;;10.69;78.33;100509.28;6224798;22;20094;-82
2020/12/13 01:33:45;;;;;;;484.48;72.80;;;;;;;10.68;78.22;100513.75;6250722;22;20023;-82
2020/12/13 01:36:12;;;;;;;475.42;71.22;;;;;;;10.68;78.16;100519.03;6276230;22;20012;-82
2020/12/13 01:38:38;;;;;;;460.38;71.45;;;;;;;10.68;78.12;100519.03;6225197;22;20554;-82
2020/12/13 01:41:05;;;;;;;475.70;70.47;;;;;;;10.68;78.33;100529.63;6276732;22;20713;-81
2020/12/13 01:43:31;;;;;;;461.02;70.35;;;;;;;10.68;78.24;100521.69;6250469;22;20016;-82
2020/12/13 01:45:57;;;;;;;379.05;68.95;;;;;;;10.68;78.09;100534.94;6250383;22;20098;-82
2020/12/13 01:48:23;;;;;;;465.02;71.38;;;;;;;10.67;77.98;100542.94;6250430;22;20645;-81
2020/12/13 01:50:59;;;;;;;374.90;66.18;;;;;;;10.66;78.03;100539.44;6249668;22;20066;-81
2020/12/13 01:53:27;;;;;;;358.10;63.33;;;;;;;10.66;78.16;100558.00;6224891;22;20022;-81
2020/12/13 01:55:57;;;;;;;458.80;70.53;;;;;;;10.67;78.08;100554.41;6224771;22;20404;-81
2020/12/13 01:58:28;;;;;;;429.20;68.43;;;;;;;10.65;78.22;100558.91;6249930;22;20073;-81
2020/12/13 02:00:56;;;;;;;431.58;70.03;;;;;;;10.66;78.16;100568.59;6276417;22;20349;-81
2020/12/13 02:03:24;;;;;;;410.80;65.13;;;;;;;10.65;78.34;100566.84;6224567;22;20019;-81
2020/12/13 02:05:59;;;;;;;436.58;68.80;;;;;;;10.65;78.32;100569.50;6276585;22;20020;-81
2020/12/13 02:08:38;;;;;;;430.23;67.97;;;;;;;10.66;78.50;100573.00;6250078;22;20016;-81
2020/12/13 02:11:04;;;;;;;421.98;67.70;;;;;;;10.67;78.38;100580.88;6276116;22;20016;-81
2020/12/13 02:13:31;;;;;;;439.20;68.65;;;;;;;10.68;78.46;100582.59;6249802;22;20022;-81
2020/12/13 02:15:59;;;;;;;416.08;67.95;;;;;;;10.71;78.47;100587.72;6249477;22;20397;-81
2020/12/13 02:18:27;;;;;;;436.10;70.03;;;;;;;10.71;78.53;100589.53;6250436;22;20069;-81
2020/12/13 02:20:54;;;;;;;423.63;68.38;;;;;;;10.73;78.43;100584.16;6249294;22;20023;-81
2020/12/13 02:23:21;;;;;;;474.02;72.68;;;;;;;10.76;78.48;100589.31;6224626;22;20023;-81
2020/12/13 02:25:47;;;;;;;426.48;68.43;;;;;;;10.78;78.58;100592.75;6276780;22;20479;-81
2020/12/13 02:28:14;;;;;;;467.98;70.75;;;;;;;10.79;78.53;100594.44;6276967;22;20015;-81
2020/12/13 02:30:40;;;;;;;420.55;68.05;;;;;;;10.80;78.37;100596.19;6224370;22;20399;-81
2020/12/13 02:33:07;;;;;;;396.35;65.00;;;;;;;10.82;78.45;100599.59;6249218;22;20023;-81
2020/12/13 02:35:33;;;;;;;420.88;67.28;;;;;;;10.82;78.47;100599.59;6250192;22;20015;-81
2020/12/13 02:37:59;;;;;;;386.05;65.07;;;;;;;10.81;78.21;100587.28;6276187;22;20051;-81
2020/12/13 02:40:25;;;;;;;376.58;62.85;;;;;;;10.80;78.42;100591.72;6249480;22;20453;-82
2020/12/13 02:42:51;;;;;;;420.80;65.47;;;;;;;10.80;78.38;100597.03;6249721;22;20030;-82
2020/12/13 02:45:17;;;;;;;380.40;64.38;;;;;;;10.80;78.52;100601.47;6277313;22;20047;-81
2020/12/13 02:47:43;;;;;;;364.02;62.72;;;;;;;10.80;78.40;100596.19;6249925;22;20070;-82
2020/12/13 02:50:09;;;;;;;366.50;62.75;;;;;;;10.81;78.50;100598.75;6249374;22;20065;-82
2020/12/13 02:52:35;;;;;;;380.73;64.05;;;;;;;10.82;78.33;100602.25;6276024;22;20303;-82
2020/12/13 02:55:01;;;;;;;408.90;63.17;;;;;;;10.81;78.56;100592.56;6276915;22;20008;-81
2020/12/13 02:57:27;;;;;;;403.85;63.88;;;;;;;10.83;78.39;100601.31;6249134;22;20020;-82
2020/12/13 02:59:53;;;;;;;376.90;63.72;;;;;;;10.82;78.34;100599.59;6224160;22;20016;-81
2020/12/13 03:02:19;;;;;;;350.27;62.72;;;;;;;10.82;78.54;100604.91;6249287;22;20081;-81
2020/12/13 03:04:45;;;;;;;366.73;63.28;;;;;;;10.82;78.33;100610.19;6224363;22;20016;-81
2020/12/13 03:07:11;;;;;;;435.77;65.88;;;;;;;10.82;78.40;100610.19;6276302;22;20020;-82
2020/12/13 03:09:37;;;;;;;383.50;62.40;;;;;;;10.85;78.68;100602.06;6250100;22;20039;-82
2020/12/13 03:12:04;;;;;;;354.40;61.85;;;;;;;10.86;78.67;100607.31;6223897;22;20067;-81
2020/12/13 03:14:31;;;;;;;370.10;62.88;;;;;;;10.89;78.39;100622.22;6249511;22;20019;-81
2020/12/13 03:16:57;;;;;;;364.13;60.53;;;;;;;10.89;78.34;100616.91;6249318;22;20024;-82
2020/12/13 03:19:24;;;;;;;385.95;62.08;;;;;;;10.89;78.50;100622.22;6249821;22;20039;-81
2020/12/13 03:21:50;;;;;;;371.92;60.03;;;;;;;10.89;78.59;100628.34;6248818;22;20087;-82
2020/12/13 03:24:16;;;;;;;353.48;58.22;;;;;;;10.91;78.38;100630.94;6249826;22;20090;-81
2020/12/13 03:26:43;;;;;;;351.58;57.17;;;;;;;10.90;78.25;100629.22;6249998;22;20027;-81
2020/12/13 03:29:09;;;;;;;326.52;54.65;;;;;;;10.90;78.22;100634.50;6224013;22;20027;-82
2020/12/13 03:31:36;;;;;;;302.33;49.60;;;;;;;10.87;78.45;100635.53;6249062;22;20020;-82
2020/12/13 03:34:02;;;;;;;306.48;53.97;;;;;;;10.86;78.18;100632.94;6249473;22;20012;-81
2020/12/13 03:36:28;;;;;;;311.48;53.25;;;;;;;10.85;78.34;100636.53;6249110;22;20571;-81
2020/12/13 03:38:54;;;;;;;389.00;57.42;;;;;;;10.83;78.43;100638.38;6249098;22;20639;-82
2020/12/13 03:41:20;;;;;;;352.23;55.38;;;;;;;10.83;78.28;100638.38;6248868;22;20030;-82
2020/12/13 03:43:47;;;;;;;373.75;56.13;;;;;;;10.84;78.46;100640.97;6276776;22;20012;-82
2020/12/13 03:46:13;;;;;;;338.35;53.50;;;;;;;10.85;78.38;100641.81;6249159;22;20046;-81
2020/12/13 03:48:39;;;;;;;305.80;52.45;;;;;;;10.86;78.45;100640.91;6250158;22;20051;-81
2020/12/13 03:51:05;;;;;;;332.77;52.70;;;;;;;10.86;78.38;100638.25;6250803;22;20442;-81
2020/12/13 03:53:31;;;;;;;331.55;52.50;;;;;;;10.86;78.34;100632.94;6251443;22;20532;-82
2020/12/13 03:55:57;;;;;;;279.73;48.75;;;;;;;10.85;78.27;100647.13;6277665;22;20016;-82
2020/12/13 03:58:23;;;;;;;290.33;50.25;;;;;;;10.85;78.56;100642.69;6251546;22;20020;-81
2020/12/13 04:00:49;;;;;;;290.45;49.17;;;;;;;10.87;78.47;100645.28;6249460;22;20088;-82
2020/12/13 04:03:15;;;;;;;290.38;49.05;;;;;;;10.90;78.55;100655.72;6224938;22;20015;-82
2020/12/13 04:05:41;;;;;;;268.60;46.65;;;;;;;10.93;78.58;100660.88;6251962;22;20054;-81
2020/12/13 04:08:07;;;;;;;305.08;49.05;;;;;;;10.95;78.53;100664.28;6250829;22;20054;-82
2020/12/13 04:10:34;;;;;;;291.25;48.63;;;;;;;10.98;78.46;100668.56;6251301;22;20027;-82
2020/12/13 04:13:00;;;;;;;265.85;45.60;;;;;;;10.98;78.66;100677.41;6251502;22;20023;-82
2020/12/13 04:15:26;;;;;;;269.33;44.35;;;;;;;11.00;78.64;100677.31;6265000;22;20051;-81
2020/12/13 04:17:52;;;;;;;296.27;47.22;;;;;;;11.02;78.63;100681.63;6288145;22;20445;-82
2020/12/13 04:20:18;;;;;;;243.75;44.03;;;;;;;11.02;78.37;100681.63;6251289;22;20098;-81
2020/12/13 04:22:45;;;;;;;271.90;46.53;;;;;;;11.02;78.25;100678.97;6251089;22;20026;-82
2020/12/13 04:25:11;;;;;;;307.63;46.58;;;;;;;11.01;78.04;100685.19;6251202;22;20023;-81
2020/12/13 04:27:37;;;;;;;260.80;44.00;;;;;;;11.00;78.20;100683.47;6226243;22;20111;-80
2020/12/13 04:30:05;;;;;;;268.38;45.33;;;;;;;10.98;78.06;100680.06;6278005;22;20026;-80
2020/12/13 04:32:31;;;;;;;259.40;44.55;;;;;;;10.99;78.35;100699.44;6277123;22;20019;-80
2020/12/13 04:34:57;;;;;;;245.45;45.95;;;;;;;10.98;78.30;100695.94;6250794;22;20039;-81
2020/12/13 04:37:24;;;;;;;229.68;43.88;;;;;;;10.97;78.34;100688.91;6224927;22;20035;-77
2020/12/13 04:39:52;;;;;;;221.38;41.70;;;;;;;10.98;78.27;100693.31;6214677;23;20112;-77
2020/12/13 04:42:21;;;;;;;243.55;44.92;;;;;;;10.98;78.27;100690.66;6212533;23;20020;-77
2020/12/13 04:44:48;;;;;;;208.65;40.35;;;;;;;10.98;78.21;100700.38;6214802;23;20091;-77
2020/12/13 04:47:19;;;;;;;213.18;41.53;;;;;;;10.97;78.38;100704.81;6214110;23;20017;-77
2020/12/13 04:49:48;;;;;;;212.95;40.60;;;;;;;10.97;78.17;100704.81;6188401;23;20425;-77
2020/12/13 04:52:15;;;;;;;206.63;41.35;;;;;;;10.97;78.25;100710.13;6214018;23;20040;-77
2020/12/13 04:54:47;;;;;;;196.80;39.67;;;;;;;10.96;78.28;100713.69;6212696;23;20039;-77
2020/12/13 04:57:13;;;;;;;232.15;42.40;;;;;;;10.96;78.29;100724.28;6212387;23;20533;-76
2020/12/13 04:59:40;;;;;;;244.68;42.80;;;;;;;10.96;78.27;100724.28;6213119;23;20183;-76
2020/12/13 05:02:07;;;;;;;225.13;41.42;;;;;;;10.96;78.21;100719.00;6213802;23;20020;-77
2020/12/13 05:04:33;;;;;;;188.32;38.22;;;;;;;10.95;78.15;100721.75;6212894;23;20017;-77
2020/12/13 05:06:59;;;;;;;218.23;40.63;;;;;;;10.93;78.17;100719.16;6213979;23;20021;-77
2020/12/13 05:09:25;;;;;;;199.65;39.75;;;;;;;10.89;78.07;100728.19;6212589;23;20028;-77
2020/12/13 05:11:51;;;;;;;197.88;40.25;;;;;;;10.88;77.99;100731.75;6214052;23;20017;-77
2020/12/13 05:14:17;;;;;;;206.93;38.30;;;;;;;10.85;78.07;100738.06;6214505;23;20099;-78
2020/12/13 05:16:44;;;;;;;205.13;39.17;;;;;;;10.85;78.22;100742.50;6188562;23;20020;-76
2020/12/13 05:19:10;;;;;;;195.65;37.75;;;;;;;10.84;78.08;100735.50;6213071;23;20025;-77
2020/12/13 05:21:36;;;;;;;225.07;39.63;;;;;;;10.82;78.08;100740.00;6213545;23;20016;-77
2020/12/13 05:24:03;;;;;;;207.90;36.88;;;;;;;10.79;77.84;100742.78;6214219;23;20020;-77
2020/12/13 05:26:29;;;;;;;219.35;37.88;;;;;;;10.77;77.97;100744.66;6212748;23;20032;-77
2020/12/13 05:28:58;;;;;;;179.10;34.22;;;;;;;10.75;77.99;100736.78;6212802;23;20020;-77
2020/12/13 05:31:26;;;;;;;178.88;32.38;;;;;;;10.73;78.11;100743.09;6211985;23;20025;-76
2020/12/13 05:34:01;;;;;;;167.65;30.50;;;;;;;10.68;77.95;100746.81;6187613;23;20016;-77
2020/12/13 05:36:30;;;;;;;195.60;36.80;;;;;;;10.66;78.16;100751.34;6211488;23;20016;-77
2020/12/13 05:38:59;;;;;;;199.80;35.00;;;;;;;10.65;78.15;100749.59;6212820;23;20020;-77
2020/12/13 05:41:32;;;;;;;185.63;33.83;;;;;;;10.64;78.15;100749.66;6211999;23;20027;-77
2020/12/13 05:44:28;;;;;;;182.48;34.00;;;;;;;10.64;78.20;100755.84;6212482;23;20020;-77
2020/12/13 05:52:48;;;;;;;199.70;33.53;;;;;;;10.64;78.41;100761.16;6150798;23;20379;-76
2020/12/13 05:55:14;;;;;;;201.52;34.60;;;;;;;10.64;78.31;100761.16;6151512;23;20021;-77
2020/12/13 05:57:40;;;;;;;193.77;35.78;;;;;;;10.65;78.42;100757.56;6165259;23;20020;-77
2020/12/13 06:00:08;;;;;;;173.68;32.92;;;;;;;10.64;78.25;100761.16;6211919;23;20052;-78
2020/12/13 06:02:38;;;;;;;174.77;32.60;;;;;;;10.64;78.29;100766.44;6212269;23;20363;-78
2020/12/13 06:05:08;;;;;;;155.10;33.97;;;;;;;10.64;78.21;100771.75;6213644;23;20016;-77
2020/12/13 06:07:35;;;;;;;159.65;32.75;;;;;;;10.64;78.03;100766.44;6213403;23;20017;-77
2020/12/13 06:10:05;;;;;;;155.02;32.97;;;;;;;10.64;78.19;100771.75;6212352;23;20021;-77
2020/12/13 06:12:32;;;;;;;152.80;31.48;;;;;;;10.65;78.42;100768.16;6211985;23;20028;-77
2020/12/13 06:15:00;;;;;;;175.98;35.42;;;;;;;10.65;78.24;100773.44;6212203;23;20017;-77
2020/12/13 06:17:27;;;;;;;169.18;35.20;;;;;;;10.68;78.36;100780.38;6211899;23;20335;-77
2020/12/13 06:19:54;;;;;;;158.10;34.22;;;;;;;10.66;78.29;100785.78;6213802;23;20017;-76
2020/12/13 06:22:22;;;;;;;193.63;37.47;;;;;;;10.68;78.23;100778.59;6211648;23;20468;-77
2020/12/13 06:24:50;;;;;;;196.68;37.90;;;;;;;10.68;78.07;100788.31;6212494;23;20023;-77
2020/12/13 06:27:20;;;;;;;210.70;38.40;;;;;;;10.68;78.14;100791.84;6211602;23;20027;-77
2020/12/13 06:29:47;;;;;;;191.63;36.85;;;;;;;10.68;78.04;100794.50;6212406;23;20040;-77
2020/12/13 06:32:13;;;;;;;184.25;39.75;;;;;;;10.68;78.19;100789.22;6210559;23;20027;-77
2020/12/13 06:34:47;;;;;;;199.05;38.58;;;;;;;10.68;78.14;100789.22;6211861;23;20091;-77
2020/12/13 06:37:13;;;;;;;193.10;40.33;;;;;;;10.68;78.26;100791.84;6219328;23;20043;-77
2020/12/13 06:39:41;;;;;;;168.60;38.72;;;;;;;10.68;77.85;100789.22;6244468;23;20047;-76
2020/12/13 06:42:08;;;;;;;181.50;39.17;;;;;;;10.67;78.01;100803.38;6216779;23;20022;-77
2020/12/13 06:44:34;;;;;;;186.02;38.88;;;;;;;10.66;77.96;100791.06;6217305;23;20008;-77
2020/12/13 06:47:01;;;;;;;172.68;39.97;;;;;;;10.64;78.11;100797.34;6243436;23;20016;-77
2020/12/13 06:49:27;;;;;;;179.30;39.90;;;;;;;10.63;78.33;100801.78;6216660;23;20488;-77
2020/12/13 06:51:53;;;;;;;177.07;39.63;;;;;;;10.62;78.01;100805.34;6243934;23;20027;-77
2020/12/13 06:54:21;;;;;;;183.50;40.47;;;;;;;10.62;77.95;100807.16;6245288;23;20020;-77
2020/12/13 06:56:47;;;;;;;158.45;39.58;;;;;;;10.61;78.00;100803.66;6216162;23;20016;-77
2020/12/13 06:59:14;;;;;;;175.43;41.08;;;;;;;10.60;78.11;100812.50;6244134;23;20016;-77
2020/12/13 07:01:43;;;;;;;175.27;41.40;;;;;;;10.60;77.97;100811.66;6243317;23;20510;-78
2020/12/13 07:04:21;;;;;;;157.90;39.22;;;;;;;10.57;78.04;100810.03;6244535;23;20054;-78
2020/12/13 07:06:51;;;;;;;163.73;40.47;;;;;;;10.56;77.90;100810.94;6244343;23;20023;-78
2020/12/13 07:09:18;;;;;;;158.85;39.83;;;;;;;10.55;78.09;100817.19;6244974;23;20450;-78
2020/12/13 07:11:45;;;;;;;161.82;41.58;;;;;;;10.55;78.51;100819.84;6218348;23;20028;-78
2020/12/13 07:14:15;;;;;;;179.77;42.45;;;;;;;10.55;78.36;100814.53;6243842;23;20346;-78
2020/12/13 07:16:45;;;;;;;181.23;43.30;;;;;;;10.54;78.12;100823.41;6217187;23;20103;-78
2020/12/13 07:19:14;;;;;;;193.98;43.65;;;;;;;10.56;78.23;100821.53;6244033;23;20020;-78
2020/12/13 07:21:42;;;;;;;197.25;43.72;;;;;;;10.58;78.21;100824.13;6244434;23;20027;-78
2020/12/13 07:24:08;;;;;;;176.98;43.65;;;;;;;10.59;78.08;100824.06;6219647;23;20017;-78
2020/12/13 07:26:37;;;;;;;189.40;43.08;;;;;;;10.59;78.02;100826.69;6220009;23;20024;-78
2020/12/13 07:29:05;;;;;;;178.43;44.17;;;;;;;10.58;77.97;100824.97;6196047;23;20705;-78
2020/12/13 07:31:36;;;;;;;205.57;46.13;;;;;;;10.59;78.04;100829.34;6219495;23;20016;-78
2020/12/13 07:34:04;;;;;;;182.93;43.58;;;;;;;10.60;78.18;100833.69;6195390;23;20016;-79
2020/12/13 07:36:30;;;;;;;197.13;44.45;;;;;;;10.59;78.15;100834.66;6218384;23;20023;-78
2020/12/13 07:38:57;;;;;;;185.80;44.67;;;;;;;10.58;77.88;100840.00;6246253;23;20078;-78
2020/12/13 07:41:25;;;;;;;186.38;45.75;;;;;;;10.58;78.04;100840.88;6244964;23;20458;-78
2020/12/13 07:43:58;;;;;;;206.45;47.05;;;;;;;10.58;78.13;100846.16;6245292;23;20050;-78
2020/12/13 07:46:26;;;;;;;204.00;47.28;;;;;;;10.60;78.01;100854.03;6218673;23;20024;-78
2020/12/13 07:49:28;;;;;;;198.73;47.63;;;;;;;10.60;78.16;100860.19;6220077;23;20066;-78
2020/12/13 07:51:56;;;;;;;192.38;45.15;;;;;;;10.60;78.19;100861.97;6101785;23;20390;-78
2020/12/13 07:54:25;;;;;;;215.43;49.00;;;;;;;10.60;78.18;100865.47;6204295;23;20040;-78
2020/12/13 07:56:54;;;;;;;224.63;49.45;;;;;;;10.63;78.09;100869.81;6201723;23;20525;-78
2020/12/13 07:59:25;;;;;;;199.82;50.20;;;;;;;10.65;78.24;100871.44;6255575;23;20020;-78
2020/12/13 08:01:53;;;;;;;211.45;49.83;;;;;;;10.68;78.02;100873.97;6253266;23;20027;-78
2020/12/13 08:04:32;;;;;;;205.68;50.13;;;;;;;10.70;78.00;100880.06;6222574;23;20020;-78
2020/12/13 08:07:00;;;;;;;209.57;48.60;;;;;;;10.70;77.92;100877.41;6219013;23;20020;-76
2020/12/13 08:09:27;;;;;;;213.30;48.72;;;;;;;10.71;77.94;100884.41;6219371;23;20016;-77
2020/12/13 08:11:53;;;;;;;230.75;49.25;;;;;;;10.71;77.87;100884.41;6218951;23;20039;-77
2020/12/13 08:14:24;;;;;;;228.30;50.70;;;;;;;10.73;77.73;100886.13;6218954;23;20335;-77
2020/12/13 08:16:52;;;;;;;247.75;51.80;;;;;;;10.73;77.51;100886.13;6218926;23;20012;-77
2020/12/13 08:19:32;;;;;;;222.10;48.65;;;;;;;10.73;77.84;100886.13;6218637;23;20501;-77
2020/12/13 08:22:13;;;;;;;229.00;50.70;;;;;;;10.73;77.68;100894.09;6193194;23;20020;-77
2020/12/13 08:24:42;;;;;;;249.90;50.13;;;;;;;10.75;77.72;100892.22;6245453;23;20465;-76
2020/12/13 08:27:10;;;;;;;227.95;48.75;;;;;;;10.78;77.81;100897.41;6244780;23;20473;-77
2020/12/13 08:29:37;;;;;;;228.25;49.42;;;;;;;10.80;77.50;100899.03;6219514;23;20020;-77
2020/12/13 08:32:21;;;;;;;236.45;48.70;;;;;;;10.81;77.61;100905.19;6245653;23;20024;-77
2020/12/13 08:34:47;;;;;;;212.63;45.42;;;;;;;10.80;77.51;100908.78;6245250;23;20012;-77
2020/12/13 08:37:22;;;;;;;205.07;46.80;;;;;;;10.79;77.61;100912.34;6245191;23;20024;-77
2020/12/13 08:39:48;;;;;;;198.70;45.35;;;;;;;10.76;77.44;100923.09;6219218;23;20023;-77
2020/12/13 08:42:22;;;;;;;192.45;46.17;;;;;;;10.76;77.54;100920.44;6249894;23;20043;-77
2020/12/13 08:44:48;;;;;;;168.23;41.13;;;;;;;10.75;77.60;100924.00;6232604;23;20016;-77
2020/12/13 08:47:18;;;;;;;153.05;39.90;;;;;;;10.70;77.23;100919.78;6246308;23;20019;-77
2020/12/13 08:49:48;;;;;;;171.27;41.83;;;;;;;10.68;77.37;100921.66;6194826;23;20016;-77
2020/12/13 08:52:18;;;;;;;150.15;39.42;;;;;;;10.66;77.47;100928.81;6246289;23;20042;-77
2020/12/13 08:55:00;;;;;;;131.25;34.05;;;;;;;10.67;77.50;100929.66;6221917;23;20016;-77
2020/12/13 08:57:31;;;;;;;150.05;39.63;;;;;;;10.67;77.15;100938.44;6218276;23;20042;-77
2020/12/13 09:00:02;;;;;;;141.20;38.33;;;;;;;10.66;77.14;100939.41;6218692;23;20103;-77
2020/12/13 09:03:27;;;;;;;136.95;36.35;;;;;;;10.62;77.07;100947.53;6218058;23;20024;-77
2020/12/13 09:05:54;;;;;;;130.98;36.78;;;;;;;10.61;77.30;100951.13;6204985;23;20123;-77
2020/12/13 09:08:23;;;;;;;119.03;35.75;;;;;;;10.57;77.29;100955.69;6245067;23;20031;-77
2020/12/13 09:10:51;;;;;;;130.10;36.55;;;;;;;10.55;77.14;100957.53;6245195;23;20070;-78
2020/12/13 09:13:19;;;;;;;86.68;31.58;;;;;;;10.52;77.03;100960.31;6245090;23;20016;-78
2020/12/13 09:15:45;;;;;;;121.97;35.70;;;;;;;10.51;77.13;100966.56;6218140;23;20019;-77
2020/12/13 09:18:11;;;;;;;106.00;33.65;;;;;;;10.53;77.03;100967.34;6244619;23;20047;-77
2020/12/13 09:20:37;;;;;;;109.00;34.13;;;;;;;10.56;77.00;100972.50;6245497;23;20027;-77
2020/12/13 09:23:19;;;;;;;104.57;32.35;;;;;;;10.62;76.99;100974.88;6220947;23;20078;-78
2020/12/13 09:25:48;;;;;;;100.03;30.50;;;;;;;10.66;76.93;100975.59;6219201;23;20015;-77
2020/12/13 09:28:15;;;;;;;99.38;29.70;;;;;;;10.70;76.95;100978.06;6220394;23;20016;-77
2020/12/13 09:30:42;;;;;;;81.43;26.92;;;;;;;10.72;76.54;100980.66;6244887;23;20512;-77
2020/12/13 09:33:09;;;;;;;71.75;24.15;;;;;;;10.73;76.50;100981.50;6195136;23;20020;-77
2020/12/13 09:35:37;;;;;;;75.97;23.70;;;;;;;10.71;76.55;100979.78;6220136;23;20016;-77
2020/12/13 09:38:05;;;;;;;65.80;22.52;;;;;;;10.71;76.46;100994.81;6208769;23;20023;-78
2020/12/13 09:40:32;;;;;;;66.85;21.10;;;;;;;10.72;76.58;100996.53;6261543;23;20016;-78
2020/12/13 09:42:59;;;;;;;64.20;19.55;;;;;;;10.69;76.43;101002.81;6222527;23;20027;-78
2020/12/13 09:45:26;;;;;;;61.80;20.65;;;;;;;10.67;76.23;100999.38;6221083;23;20019;-78
2020/12/13 09:47:57;;;;;;;49.10;18.38;;;;;;;10.63;76.21;101008.38;6251620;23;20080;-78
2020/12/13 09:50:26;;;;;;;55.72;18.73;;;;;;;10.63;76.33;101003.09;6254972;23;20047;-78
2020/12/13 09:52:52;;;;;;;64.35;20.58;;;;;;;10.63;76.71;101000.44;6246196;23;20371;-78
2020/12/13 09:55:18;;;;;;;61.20;20.95;;;;;;;10.64;76.49;101007.47;6194185;23;20099;-78
2020/12/13 09:57:45;;;;;;;57.08;19.77;;;;;;;10.65;76.53;101011.81;6244764;23;20020;-78
2020/12/13 10:00:12;;;;;;;53.25;19.08;;;;;;;10.62;76.50;101006.66;6220008;23;20081;-78
2020/12/13 10:02:40;;;;;;;54.60;18.75;;;;;;;10.61;76.67;101004.94;6218784;23;20393;-78
2020/12/13 10:05:11;;;;;;;57.60;18.23;;;;;;;10.61;76.58;101012.88;6217272;23;20016;-78
2020/12/13 10:10:14;;;;;;;51.28;18.42;;;;;;;10.64;76.59;101020.72;6244830;23;20020;-77
2020/12/13 10:12:41;;;;;;;43.40;15.63;;;;;;;10.65;76.70;101022.41;6192937;23;20028;-77
2020/12/13 10:15:08;;;;;;;45.42;15.77;;;;;;;10.67;76.36;101019.72;6191918;23;20019;-77
2020/12/13 10:17:34;;;;;;;45.47;17.45;;;;;;;10.69;76.74;101018.72;6217490;23;20027;-77
2020/12/13 10:20:00;;;;;;;45.25;16.20;;;;;;;10.75;76.68;101022.03;6244534;23;20673;-77
2020/12/13 10:22:26;;;;;;;46.75;18.30;;;;;;;10.80;77.09;101022.69;6243810;23;20457;-77
2020/12/13 10:24:52;;;;;;;43.63;14.90;;;;;;;10.85;76.63;101012.75;6245526;23;20008;-78
2020/12/13 10:27:18;;;;;;;36.97;14.50;;;;;;;10.89;76.62;101014.34;6243930;23;20026;-78
2020/12/13 10:29:44;;;;;;;34.05;14.00;;;;;;;10.90;76.44;101011.63;6245802;23;20027;-78
2020/12/13 10:32:10;;;;;;;44.83;17.02;;;;;;;10.93;76.51;101008.00;6218570;23;20102;-78
2020/12/13 10:34:36;;;;;;;45.33;16.08;;;;;;;10.99;76.85;101005.06;6246035;23;20016;-77
2020/12/13 10:37:02;;;;;;;41.10;16.30;;;;;;;11.09;76.72;101006.41;6193093;22;20119;-82
2020/12/13 10:39:28;;;;;;;38.92;14.68;;;;;;;11.19;76.74;101006.84;6244991;23;20024;-82
2020/12/13 10:41:54;;;;;;;38.50;16.00;;;;;;;11.28;76.36;101011.72;6217762;23;20019;-82
2020/12/13 10:44:21;;;;;;;47.50;17.65;;;;;;;11.37;76.33;101004.28;6193263;23;20428;-81
2020/12/13 10:46:48;;;;;;;40.42;14.90;;;;;;;11.44;76.49;101009.22;6217859;23;20107;-82
2020/12/13 10:49:15;;;;;;;45.53;16.08;;;;;;;11.53;76.38;101007.06;6218634;23;20078;-82
2020/12/13 10:51:42;;;;;;;46.83;16.58;;;;;;;11.61;76.10;100997.81;6218182;23;20075;-82
2020/12/13 10:54:08;;;;;;;33.65;13.15;;;;;;;11.69;76.09;100994.81;6218607;23;20350;-82
2020/12/13 10:56:35;;;;;;;31.63;13.23;;;;;;;11.76;76.11;100998.91;6192934;23;20016;-81
2020/12/13 10:59:01;;;;;;;33.70;13.80;;;;;;;11.80;75.55;100991.66;6195019;23;20022;-82
2020/12/13 11:01:27;;;;;;;39.33;12.93;;;;;;;11.81;75.61;100988.06;6245091;23;20039;-82
2020/12/13 11:03:53;;;;;;;31.60;11.95;;;;;;;11.84;75.54;100995.88;6220604;23;20452;-82
2020/12/13 11:06:38;;;;;;;33.40;11.07;;;;;;;11.82;75.34;100990.63;6247075;23;20042;-82
2020/12/13 11:09:22;;;;;;;35.95;11.32;;;;;;;11.85;75.45;100984.34;6225023;23;20035;-82
2020/12/13 11:11:48;;;;;;;33.33;11.35;;;;;;;11.91;75.57;100980.56;6219376;23;20114;-82
2020/12/13 11:14:14;;;;;;;28.10;11.30;;;;;;;11.98;75.35;100981.97;6220281;23;20108;-82